Latest Weather Observations for Casino

IDN60801

Issued at 7:35 am EST Wednesday 3 September 2014 (issued every 30 minutes, with the page automatically refreshed every 10 minutes)

About weather observations | Map of weather stations | Latest weather observations for NSW | Other Formats
Station Details ID: 058208 Name: CASINO AIRPORT AWS Lat: -28.88 Lon: 153.06 Height: 20.9 m
Data from the previous 72 hours. | See also: Recent months at Casino
Date/Time
EST
Temp
°C
App
Temp
°C
Dew
Point
Rel
Hum
%
Delta-T
°C
Wind Press
QNH
hPa
Press
MSL
hPa
Rain
since 9 am
mm
Dir
 
Spd
km/h
Gust
km/h
Spd
kts
Gust
kts
03/07:30am 14.5 9.6 2.1 43 5.5 WNW 17 20 9 11 1010.4 - 0.0
03/07:00am 13.2 8.3 1.8 46 4.9 NW 17 24 9 13 1010.3 1010.3 0.0
03/06:30am 11.8 6.8 1.4 49 4.4 WNW 17 20 9 11 1010.3 - 0.0
03/06:00am 11.5 6.5 1.5 50 4.2 WNW 17 26 9 14 1010.3 1010.3 0.0
03/05:30am 11.7 7.0 0.8 47 4.5 WNW 15 22 8 12 1010.1 - 0.0
03/05:00am 12.1 8.5 0.8 46 4.7 WSW 9 17 5 9 1009.9 1009.9 0.0
03/04:30am 10.7 6.5 1.5 53 3.9 WNW 13 19 7 10 1009.4 - 0.0
03/04:00am 10.8 5.9 1.9 54 3.8 WNW 17 20 9 11 1009.3 1009.3 0.0
03/03:30am 10.8 6.6 1.9 54 3.8 WNW 13 15 7 8 1009.5 - 0.0
03/03:00am 11.6 7.8 1.8 51 4.2 W 11 15 6 8 1009.9 1009.9 0.0
03/02:30am 11.9 7.7 1.5 49 4.4 WNW 13 19 7 10 1010.2 - 0.0
03/02:00am 12.3 9.2 1.3 47 4.7 W 7 11 4 6 1010.6 1010.6 0.0
03/01:30am 13.5 8.8 1.2 43 5.3 W 15 20 8 11 1010.8 - 0.0
03/01:00am 13.4 8.4 1.1 43 5.2 WNW 17 28 9 15 1011.2 1011.2 0.0
03/12:30am 14.0 8.6 1.0 41 5.6 W 19 32 10 17 1011.4 - 0.0
03/12:00am 14.4 9.8 1.3 41 5.7 W 15 22 8 12 1011.6 1011.6 0.0
 
Date/Time
EST
Temp
°C
App
Temp
°C
Dew
Point
Rel
Hum
%
Delta-T
°C
Wind Press
QNH
hPa
Press
MSL
hPa
Rain
since 9 am
mm
Dir
 
Spd
km/h
Gust
km/h
Spd
kts
Gust
kts
02/11:30pm 13.7 9.6 2.0 45 5.1 WNW 13 17 7 9 1011.8 - 0.0
02/11:00pm 14.1 9.5 1.4 42 5.5 WNW 15 19 8 10 1011.7 1011.7 0.0
02/10:30pm 14.9 10.3 1.4 40 5.9 WNW 15 22 8 12 1011.6 - 0.0
02/10:00pm 15.2 11.0 1.4 39 6.0 W 13 17 7 9 1011.6 1011.6 0.0
02/09:30pm 15.7 11.5 1.8 39 6.1 W 13 20 7 11 1011.6 - 0.0
02/09:00pm 16.3 11.8 2.0 38 6.4 W 15 26 8 14 1011.4 1011.4 0.0
02/08:30pm 17.0 11.4 1.0 34 7.0 W 20 30 11 16 1011.3 - 0.0
02/08:00pm 17.5 12.1 1.5 34 7.1 W 19 33 10 18 1011.0 1011.0 0.0
02/07:30pm 17.7 12.4 2.1 35 7.1 W 19 30 10 16 1010.4 - 0.0
02/07:00pm 18.7 12.8 1.7 32 7.7 W 22 33 12 18 1010.0 1010.0 0.0
02/06:30pm 19.3 12.9 0.8 29 8.3 W 24 44 13 24 1009.3 - 0.0
02/06:00pm 19.7 15.0 3.0 33 7.8 W 17 30 9 16 1008.8 1008.8 0.0
02/05:30pm 20.7 15.3 2.5 30 8.5 W 20 30 11 16 1008.2 - 0.0
02/05:00pm 21.9 15.9 3.6 30 8.8 W 24 46 13 25 1007.4 1007.4 0.0
02/04:30pm 23.3 16.5 3.3 27 9.7 W 28 46 15 25 1006.5 - 0.0
02/04:07pm 24.4 16.5 1.3 22 10.8 WNW 32 50 17 27 1006.0 - 0.0
02/04:00pm 24.7 17.0 2.2 23 10.8 WNW 32 48 17 26 1005.9 1005.9 0.0
02/03:55pm 24.7 17.7 2.2 23 10.8 WNW 28 46 15 25 1005.9 - 0.0
02/03:30pm 25.2 18.2 2.0 22 11.1 W 28 44 15 24 1005.9 - 0.0
02/03:15pm 25.2 18.2 2.0 22 11.1 W 28 46 15 25 1005.7 - 0.0
02/03:00pm 25.8 19.4 3.1 23 11.2 W 26 37 14 20 1005.5 1005.5 0.0
02/02:30pm 26.1 19.7 5.1 26 10.7 NW 28 37 15 20 1005.0 - 0.0
02/02:00pm 26.5 19.8 3.7 23 11.4 NW 28 43 15 23 1005.2 1005.2 0.0
02/01:30pm 27.8 19.7 3.5 21 12.2 NW 35 46 19 25 1005.3 - 0.0
02/01:23pm 27.5 19.1 3.9 22 11.9 NW 37 43 20 23 1005.5 - 0.0
02/01:00pm 26.7 21.7 9.5 34 9.5 N 26 37 14 20 1006.0 1006.0 0.0
02/12:30pm 25.3 20.3 7.9 33 9.3 N 24 35 13 19 1006.5 - 0.0
02/12:00pm 24.9 20.3 8.0 34 9.0 N 22 32 12 17 1007.6 1007.6 0.0
02/11:30am 22.9 18.5 9.0 41 7.4 N 22 32 12 17 1008.3 - 0.0
02/11:00am 21.6 16.7 8.5 43 6.9 NNW 24 30 13 16 1009.1 1009.1 0.0
02/10:30am 21.7 16.4 8.6 43 6.9 NNW 26 35 14 19 1009.6 - 0.0
02/10:00am 22.3 18.7 10.5 47 6.5 NNW 20 30 11 16 1010.3 1010.3 0.0
02/09:30am 20.3 16.5 9.8 51 5.6 NNW 20 28 11 15 1010.8 - 0.0
02/09:00am 18.9 14.8 10.2 57 4.7 NNW 22 32 12 17 1011.1 1011.1 0.0
02/08:30am 17.4 13.9 10.1 62 3.9 NW 19 28 10 15 1011.6 - 0.0
02/08:00am 17.3 13.9 11.3 68 3.3 NW 20 28 11 15 1011.8 1011.8 0.0
02/07:30am 14.3 13.9 11.1 81 1.7 W 4 9 2 5 1011.9 - 0.0
02/07:00am 13.5 12.7 11.2 86 1.2 W 6 11 3 6 1012.0 1012.0 0.0
02/06:30am 13.1 13.4 10.8 86 1.2 CALM 0 0 0 0 1011.9 - 0.0
02/06:00am 12.9 12.0 10.6 86 1.2 NW 6 7 3 4 1011.8 1011.8 0.0
02/05:30am 13.6 14.0 11.1 85 1.3 CALM 0 0 0 0 1011.8 - 0.0
02/05:00am 13.8 13.1 11.3 85 1.3 W 6 7 3 4 1011.9 1011.9 0.0
02/04:30am 14.0 12.6 11.0 82 1.6 WNW 9 11 5 6 1012.0 - 0.0
02/04:00am 15.4 14.4 12.2 81 1.7 NW 9 15 5 8 1012.1 1012.1 0.0
02/03:30am 15.9 13.9 12.6 81 1.8 NW 15 17 8 9 1012.3 - 0.0
02/03:00am 16.1 14.5 12.8 81 1.8 NNW 13 19 7 10 1012.2 1012.2 0.0
02/02:30am 14.4 13.3 11.9 85 1.3 NW 9 11 5 6 1012.6 - 0.0
02/02:00am 14.7 13.6 12.0 84 1.5 WNW 9 13 5 7 1013.0 1013.0 0.0
02/01:30am 12.8 12.0 10.9 88 1.0 W 6 9 3 5 1013.0 - 0.0
02/01:00am 12.3 12.0 10.0 86 1.2 ENE 2 7 1 4 1013.2 1013.2 0.0
02/12:30am 13.3 12.4 10.7 84 1.4 N 6 7 3 4 1014.0 - 0.0
02/12:00am 14.1 12.6 10.5 79 1.9 NNW 9 13 5 7 1014.3 1014.2 0.0
 
Date/Time
EST
Temp
°C
App
Temp
°C
Dew
Point
Rel
Hum
%
Delta-T
°C
Wind Press
QNH
hPa
Press
MSL
hPa
Rain
since 9 am
mm
Dir
 
Spd
km/h
Gust
km/h
Spd
kts
Gust
kts
01/11:30pm 16.2 14.4 12.0 76 2.3 NNW 13 19 7 10 1014.4 - 0.0
01/11:00pm 15.3 13.6 11.3 77 2.1 NNW 11 13 6 7 1014.6 1014.5 0.0
01/10:30pm 15.4 14.0 10.8 74 2.4 NNW 9 11 5 6 1014.7 - 0.0
01/10:00pm 15.6 14.1 12.0 79 2.0 NW 11 15 6 8 1014.8 1014.7 0.0
01/09:30pm 14.2 14.5 12.1 87 1.1 W 2 7 1 4 1014.8 - 0.0
01/09:00pm 14.4 14.0 12.3 87 1.1 WNW 6 9 3 5 1015.0 1014.9 0.0
01/08:30pm 14.6 14.1 12.5 87 1.1 WSW 7 11 4 6 1015.0 - 0.0
01/08:00pm 14.8 14.3 12.8 88 1.1 NNE 7 9 4 5 1014.8 1014.7 0.0
01/07:30pm 15.6 15.9 13.3 86 1.3 S 4 7 2 4 1014.6 - 0.0
01/07:00pm 16.2 16.9 13.3 83 1.6 S 2 9 1 5 1014.2 1014.1 0.0
01/06:30pm 17.2 18.3 13.5 79 2.1 CALM 0 0 0 0 1013.9 - 0.0
01/06:00pm 18.1 17.3 12.8 71 3.0 NE 9 13 5 7 1013.5 1013.5 0.0
01/05:30pm 19.8 18.6 12.8 64 4.0 ENE 11 15 6 8 1013.3 - 0.0
01/05:00pm 22.6 20.6 8.7 41 7.4 N 9 11 5 6 1013.4 1013.4 0.0
01/04:30pm 24.9 21.9 7.5 33 9.2 N 13 17 7 9 1013.1 - 0.0
01/04:00pm 25.8 23.3 4.9 26 10.6 NW 7 13 4 7 1012.9 1012.9 0.0
01/03:30pm 26.6 23.7 6.6 28 10.5 NNW 11 17 6 9 1013.1 - 0.0
01/03:00pm 26.3 22.7 6.9 29 10.2 NNW 15 22 8 12 1013.4 1013.4 0.0
01/02:30pm 25.7 22.2 8.7 34 9.2 N 17 22 9 12 1013.8 - 0.0
01/02:00pm 25.6 22.6 9.4 36 8.9 N 15 26 8 14 1014.3 1014.2 0.0
01/01:30pm 24.7 22.1 9.4 38 8.3 NW 13 20 7 11 1014.8 - 0.0
01/01:00pm 25.4 23.1 10.4 39 8.3 N 13 20 7 11 1015.1 1015.0 0.0
01/12:30pm 23.6 21.3 10.3 43 7.3 NW 13 20 7 11 1015.9 - 0.0
01/12:00pm 24.0 21.4 10.7 43 7.4 N 15 20 8 11 1016.3 1016.2 0.0
01/11:30am 23.7 22.0 11.1 45 7.0 NNW 11 19 6 10 1017.1 - 0.0
01/11:00am 22.6 21.4 11.7 50 6.1 WNW 9 15 5 8 1017.7 1017.6 0.0
01/10:30am 22.3 20.5 12.0 52 5.8 N 13 19 7 10 1018.4 - 0.0
01/10:00am 22.0 20.0 12.8 56 5.2 N 15 19 8 10 1018.8 1018.7 0.0
01/09:30am 21.2 19.3 12.9 59 4.7 N 15 19 8 10 1019.0 - 0.0
01/09:00am 20.5 19.7 13.9 66 3.8 NNW 11 15 6 8 1019.2 1019.1 0.0
01/08:30am 18.5 17.4 13.1 71 3.0 NW 11 15 6 8 1019.4 - 0.0
01/08:00am 17.6 17.0 13.5 77 2.3 NNW 9 11 5 6 1019.3 1019.2 0.0
01/07:30am 16.2 15.8 13.1 82 1.7 NNW 7 9 4 5 1019.1 - 0.0
01/07:00am 14.8 15.0 13.0 89 1.0 NW 4 6 2 3 1018.9 1018.8 0.0
01/06:30am 14.3 13.3 12.3 88 1.1 WNW 9 11 5 6 1018.7 - 0.0
01/06:00am 14.2 13.7 12.2 88 1.1 W 6 7 3 4 1018.5 1018.4 0.0
01/05:30am 14.0 13.5 12.0 88 1.1 W 6 7 3 4 1018.1 - 0.0
01/05:00am 14.7 14.2 12.6 87 1.1 W 7 7 4 4 1018.0 1017.9 0.0
01/04:30am 14.8 14.5 12.7 87 1.2 W 6 7 3 4 1017.9 - 0.0
01/04:00am 14.7 14.2 12.7 88 1.1 NNW 7 11 4 6 1017.9 1017.8 0.0
01/03:30am 14.7 14.2 12.7 88 1.1 NNW 7 9 4 5 1017.9 - 0.0
01/03:00am 14.7 15.2 12.9 89 1.0 NW 2 7 1 4 1017.9 1017.8 0.0
01/02:30am 14.6 14.1 12.8 89 1.0 NW 7 7 4 4 1018.1 - 0.0
01/02:00am 14.6 13.8 13.0 90 0.9 NW 9 9 5 5 1018.3 1018.2 0.0
01/01:30am 14.5 14.1 13.0 91 0.8 NW 7 9 4 5 1018.4 - 0.0
01/01:00am 14.3 14.9 13.0 92 0.7 W 2 7 1 4 1018.7 1018.6 0.0
01/12:30am 13.9 14.7 12.6 92 0.7 CALM 0 0 0 0 1018.6 - 0.0
01/12:00am 13.4 13.3 12.1 92 0.7 NNW 4 6 2 3 1018.8 1018.7 0.0
 
Date/Time
EST
Temp
°C
App
Temp
°C
Dew
Point
Rel
Hum
%
Delta-T
°C
Wind Press
QNH
hPa
Press
MSL
hPa
Rain
since 9 am
mm
Dir
 
Spd
km/h
Gust
km/h
Spd
kts
Gust
kts
31/11:30pm 12.9 12.2 11.5 91 0.7 NNW 6 7 3 4 1018.8 - 0.0
31/11:00pm 13.4 14.0 11.8 90 0.9 CALM 0 0 0 0 1018.9 1018.8 0.0
31/10:30pm 14.0 13.9 12.2 89 1.0 W 4 6 2 3 1018.9 - 0.0
31/10:00pm 14.6 14.3 12.8 89 1.0 WSW 6 7 3 4 1019.0 1018.9 0.0
31/09:30pm 15.2 15.3 13.9 92 0.7 W 6 9 3 5 1019.0 - 0.0
31/09:00pm 13.5 13.0 11.9 90 0.9 W 6 7 3 4 1018.9 1018.8 0.0
31/08:30pm 13.8 13.3 12.2 90 0.9 SW 6 7 3 4 1018.9 - 0.0
31/08:00pm 14.1 14.8 12.3 89 1.0 CALM 0 0 0 0 1018.7 1018.6 0.0
31/07:30pm 14.4 14.3 12.1 86 1.2 E 4 6 2 3 1018.6 - 0.0
31/07:00pm 15.2 14.4 12.9 86 1.3 ESE 9 11 5 6 1018.1 1018.0 0.0
31/06:30pm 15.5 13.8 12.6 83 1.6 ESE 13 17 7 9 1017.6 - 0.0
31/06:00pm 16.5 14.5 12.8 79 2.1 ESE 15 17 8 9 1017.2 1017.1 0.0
31/05:30pm 17.6 14.8 12.7 73 2.7 E 19 24 10 13 1016.9 - 0.0
31/05:00pm 19.3 16.1 13.0 67 3.6 ESE 22 30 12 16 1016.6 1016.5 0.0
31/04:30pm 20.8 17.9 13.0 61 4.4 E 20 28 11 15 1016.2 - 0.0
31/04:00pm 21.7 18.3 12.5 56 5.2 E 22 30 12 16 1016.0 1015.9 0.0
31/03:30pm 22.5 18.4 11.6 50 6.1 E 24 32 13 17 1015.8 - 0.0
31/03:00pm 23.8 22.3 11.8 47 6.8 ESE 11 20 6 11 1015.6 1015.5 0.0
31/02:30pm 24.7 23.1 11.6 44 7.4 E 11 26 6 14 1015.8 - 0.0
31/02:00pm 23.9 23.0 10.6 43 7.4 ENE 6 17 3 9 1016.0 1015.9 0.0
31/01:30pm 23.0 21.0 10.1 44 7.1 SSW 11 15 6 8 1016.2 - 0.0
31/01:00pm 22.8 21.4 10.9 47 6.6 S 9 13 5 7 1016.7 1016.6 0.0
31/12:30pm 22.5 20.8 10.0 45 6.8 ESE 9 13 5 7 1017.1 - 0.0
31/12:00pm 22.5 21.5 10.3 46 6.7 SE 6 9 3 5 1017.6 1017.5 0.0
31/11:30am 22.5 21.4 10.6 47 6.5 S 7 13 4 7 1018.1 - 0.0
31/11:00am 21.7 19.9 10.8 50 6.0 S 11 17 6 9 1018.5 1018.4 0.0
31/10:30am 21.1 20.2 11.2 53 5.5 SSW 7 13 4 7 1018.9 - 0.0
31/10:00am 19.6 18.4 10.3 55 5.0 W 7 13 4 7 1019.1 1019.0 0.0
31/09:30am 18.8 17.7 12.1 65 3.7 NW 9 15 5 8 1019.2 - 0.0
31/09:00am 17.5 16.0 11.8 69 3.1 WNW 11 15 6 8 1019.5 1019.4 0.2
31/08:30am 16.4 14.9 11.8 74 2.5 WNW 11 15 6 8 1019.6 - 0.2
31/08:00am 14.3 12.4 11.8 85 1.3 NW 13 15 7 8 1019.7 1019.6 0.2

Other Formats:

Comma delimited format used in spreadsheet applications
http://www.bom.gov.au/fwo/IDN60801/IDN60801.94573.axf

JavaScript Object Notation format (JSON) in row-major order
http://www.bom.gov.au/fwo/IDN60801/IDN60801.94573.json